Time;durP1;ratioP1;P1;durP2;ratioP2;P2;SDS_P1;SDS_P2;PMS_P1;PMS_P2;Temp;Humidity;BMP_temperature;BMP_pressure;BME280_temperature;BME280_humidity;BME280_pressure;Samples;Min_cycle;Max_cycle;Signal;HPM_P1;HPM_P2
2022/11/11 00:01:51;;;;;;;;;;;;;;;;;;10581984;28;19973;-68
2022/11/11 00:06:53;;;;;;;;;;;;;;;;;;10581453;28;20264;-67
2022/11/11 00:11:55;;;;;;;;;;;;;;;;;;10581458;28;19932;-68
2022/11/11 00:27:29;;;;;;;;;;;;;;;;;;10581062;28;20000;-68
2022/11/11 00:32:32;;;;;;;;;;;;;;;;;;10581502;28;19924;-68
2022/11/11 00:37:34;;;;;;;;;;;;;;;;;;10580930;28;20467;-68
2022/11/11 00:42:36;;;;;;;;;;;;;;;;;;10563471;28;19928;-68
2022/11/11 00:52:59;;;;;;;;;;;;;;;;;;10588841;28;19924;-68
2022/11/11 00:58:02;;;;;;;;;;;;;;;;;;10588788;28;19924;-68
2022/11/11 01:03:04;;;;;;;;;;;;;;;;;;10587876;28;19997;-68
2022/11/11 01:08:06;;;;;;;;;;;;;;;;;;10588208;28;19927;-68
2022/11/11 01:13:11;;;;;;;;;;;;;;;;;;10588033;28;20019;-68
2022/11/11 01:18:13;;;;;;;;;;;;;;;;;;10587188;28;20019;-68
2022/11/11 01:23:16;;;;;;;;;;;;;;;;;;10587017;28;20344;-68
2022/11/11 01:28:18;;;;;;;;;;;;;;;;;;10586744;28;20304;-67
2022/11/11 01:33:20;;;;;;;;;;;;;;;;;;10587240;28;19953;-68
2022/11/11 01:38:22;;;;;;;;;;;;;;;;;;10587045;28;19931;-68
2022/11/11 01:43:24;;;;;;;;;;;;;;;;;;10586878;28;19971;-68
2022/11/11 01:53:47;;;;;;;;;;;;;;;;;;10586385;28;19928;-68
2022/11/11 01:58:50;;;;;;;;;;;;;;;;;;10584630;28;19927;-68
2022/11/11 02:09:13;;;;;;;;;;;;;;;;;;10585802;28;19973;-68
2022/11/11 02:19:35;;;;;;;;;;;;;;;;;;10584695;28;20397;-68
2022/11/11 02:24:37;;;;;;;;;;;;;;;;;;10585371;28;19934;-68
2022/11/11 02:29:39;;;;;;;;;;;;;;;;;;10584705;28;20323;-68
2022/11/11 02:34:42;;;;;;;;;;;;;;;;;;10584124;28;19969;-68
2022/11/11 02:39:44;;;;;;;;;;;;;;;;;;10583970;28;20398;-68
2022/11/11 02:45:03;;;;;;;;;;;;;;;;;;10584236;28;19928;-68
2022/11/11 02:50:05;;;;;;;;;;;;;;;;;;10584237;28;19923;-68
2022/11/11 02:55:08;;;;;;;;;;;;;;;;;;10583296;28;20378;-68
2022/11/11 03:00:10;;;;;;;;;;;;;;;;;;10583817;28;19931;-68
2022/11/11 03:05:13;;;;;;;;;;;;;;;;;;10582754;28;19923;-68
2022/11/11 03:10:16;;;;;;;;;;;;;;;;;;10583260;28;19924;-68
2022/11/11 03:15:18;;;;;;;;;;;;;;;;;;10583294;28;19927;-68
2022/11/11 03:25:40;;;;;;;;;;;;;;;;;;10582804;28;19988;-67
2022/11/11 03:30:42;;;;;;;;;;;;;;;;;;10582213;28;19969;-67
2022/11/11 03:35:45;;;;;;;;;;;;;;;;;;10582765;28;19924;-67
2022/11/11 03:40:47;;;;;;;;;;;;;;;;;;10582028;28;20000;-67
2022/11/11 03:45:49;;;;;;;;;;;;;;;;;;10581754;28;19953;-67
2022/11/11 03:50:51;;;;;;;;;;;;;;;;;;10582466;28;19928;-67
2022/11/11 03:55:53;;;;;;;;;;;;;;;;;;10582292;28;20405;-67
2022/11/11 04:00:55;;;;;;;;;;;;;;;;;;10582305;28;19928;-67
2022/11/11 04:11:18;;;;;;;;;;;;;;;;;;10539870;28;19972;-67
2022/11/11 04:16:20;;;;;;;;;;;;;;;;;;10538066;28;19924;-67
2022/11/11 04:26:43;;;;;;;;;;;;;;;;;;10547649;28;19969;-67
2022/11/11 04:37:06;;;;;;;;;;;;;;;;;;10547351;28;19924;-68
2022/11/11 04:42:08;;;;;;;;;;;;;;;;;;10547169;28;19961;-67
2022/11/11 04:47:10;;;;;;;;;;;;;;;;;;10546233;28;20271;-67
2022/11/11 04:52:27;;;;;;;;;;;;;;;;;;10546759;28;19969;-67
2022/11/11 04:57:29;;;;;;;;;;;;;;;;;;10546529;28;19931;-67
2022/11/11 05:29:14;;;;;;;;;;;;;;;;;;10587953;28;19932;-67
2022/11/11 05:34:16;;;;;;;;;;;;;;;;;;10587689;28;19966;-67
2022/11/11 05:39:18;;;;;;;;;;;;;;;;;;10586450;28;19977;-67
2022/11/11 05:44:20;;;;;;;;;;;;;;;;;;10586110;28;20333;-67
2022/11/11 05:49:23;;;;;;;;;;;;;;;;;;10586642;28;19928;-67
2022/11/11 05:54:26;;;;;;;;;;;;;;;;;;10586417;28;19931;-67
2022/11/11 05:59:28;;;;;;;;;;;;;;;;;;10586222;28;19928;-67
2022/11/11 06:04:30;;;;;;;;;;;;;;;;;;10585724;28;19923;-67
2022/11/11 06:09:32;;;;;;;;;;;;;;;;;;10585844;28;19924;-67
2022/11/11 06:14:34;;;;;;;;;;;;;;;;;;10585505;28;19969;-67
2022/11/11 06:19:36;;;;;;;;;;;;;;;;;;10585937;28;19973;-67
2022/11/11 06:24:38;;;;;;;;;;;;;;;;;;10585578;28;19928;-67
2022/11/11 06:29:40;;;;;;;;;;;;;;;;;;10584882;28;20323;-67
2022/11/11 06:34:42;;;;;;;;;;;;;;;;;;10584816;28;19927;-67
2022/11/11 06:39:44;;;;;;;;;;;;;;;;;;10583947;28;19924;-67
2022/11/11 06:44:46;;;;;;;;;;;;;;;;;;10583261;28;19924;-67
2022/11/11 06:49:48;;;;;;;;;;;;;;;;;;10584236;28;19973;-67
2022/11/11 06:54:51;;;;;;;;;;;;;;;;;;10583362;28;20275;-67
2022/11/11 06:59:53;;;;;;;;;;;;;;;;;;10565562;28;20382;-67
2022/11/11 07:04:55;;;;;;;;;;;;;;;;;;10583297;28;19940;-67
2022/11/11 07:09:57;;;;;;;;;;;;;;;;;;10582897;28;19985;-67
2022/11/11 07:14:59;;;;;;;;;;;;;;;;;;10583903;28;19965;-67
2022/11/11 07:20:01;;;;;;;;;;;;;;;;;;10583234;28;19924;-67
2022/11/11 07:25:03;;;;;;;;;;;;;;;;;;10582973;28;19927;-67
2022/11/11 07:30:05;;;;;;;;;;;;;;;;;;10582347;28;19969;-67
2022/11/11 07:35:08;;;;;;;;;;;;;;;;;;10582845;28;19928;-67
2022/11/11 07:40:11;;;;;;;;;;;;;;;;;;10582002;28;20293;-67
2022/11/11 07:45:13;;;;;;;;;;;;;;;;;;10582977;28;19924;-67
2022/11/11 07:50:15;;;;;;;;;;;;;;;;;;10581878;28;19923;-67
2022/11/11 07:55:17;;;;;;;;;;;;;;;;;;10583209;28;19984;-67
2022/11/11 08:00:19;;;;;;;;;;;;;;;;;;10591036;28;19923;-67
2022/11/11 08:05:21;;;;;;;;;;;;;;;;;;10590149;28;19932;-67
2022/11/11 08:10:23;;;;;;;;;;;;;;;;;;10590049;28;19927;-67
2022/11/11 08:15:25;;;;;;;;;;;;;;;;;;10589784;28;19968;-67
2022/11/11 08:20:27;;;;;;;;;;;;;;;;;;10590213;28;19979;-67
2022/11/11 08:25:29;;;;;;;;;;;;;;;;;;10589357;28;19969;-67
2022/11/11 08:30:31;;;;;;;;;;;;;;;;;;10589897;28;19973;-67
2022/11/11 08:35:33;;;;;;;;;;;;;;;;;;10589651;28;19928;-67
2022/11/11 08:40:36;;;;;;;;;;;;;;;;;;10589999;28;19965;-67
2022/11/11 08:45:38;;;;;;;;;;;;;;;;;;10589196;28;19969;-67
2022/11/11 08:50:40;;;;;;;;;;;;;;;;;;10589042;28;20048;-67
2022/11/11 08:55:42;;;;;;;;;;;;;;;;;;10588178;28;19941;-67
2022/11/11 09:00:44;;;;;;;;;;;;;;;;;;10587945;28;19924;-67
2022/11/11 09:05:46;;;;;;;;;;;;;;;;;;10587472;28;19924;-67
2022/11/11 09:10:48;;;;;;;;;;;;;;;;;;10587464;28;20367;-67
2022/11/11 09:15:50;;;;;;;;;;;;;;;;;;10587872;28;19924;-67
2022/11/11 09:20:52;;;;;;;;;;;;;;;;;;10587822;28;19969;-67
2022/11/11 09:25:56;;;;;;;;;;;;;;;;;;10586902;28;20324;-68
2022/11/11 09:30:59;;;;;;;;;;;;;;;;;;10586799;28;19928;-67
2022/11/11 09:36:21;;;;;;;;;;;;;;;;;;10587853;28;19963;-68
2022/11/11 09:41:23;;;;;;;;;;;;;;;;;;10586993;28;19976;-68
2022/11/11 09:46:25;;;;;;;;;;;;;;;;;;10586446;28;19924;-68
2022/11/11 09:51:27;;;;;;;;;;;;;;;;;;10585692;28;19923;-68
2022/11/11 09:56:29;;;;;;;;;;;;;;;;;;10586409;28;19923;-68
2022/11/11 10:01:32;;;;;;;;;;;;;;;;;;10586189;28;19924;-68
2022/11/11 10:06:35;;;;;;;;;;;;;;;;;;10585151;28;20396;-68
2022/11/11 10:11:37;;;;;;;;;;;;;;;;;;10585149;28;20289;-68
2022/11/11 10:16:39;;;;;;;;;;;;;;;;;;10586246;28;19928;-68
2022/11/11 10:21:41;;;;;;;;;;;;;;;;;;10584676;28;19923;-68
2022/11/11 10:27:03;;;;;;;;;;;;;;;;;;10584775;28;20416;-68
2022/11/11 10:32:05;;;;;;;;;;;;;;;;;;10585044;28;19924;-68
2022/11/11 10:37:07;;;;;;;;;;;;;;;;;;10584233;28;20332;-68
2022/11/11 10:42:09;;;;;;;;;;;;;;;;;;10585022;28;19931;-69
2022/11/11 10:47:11;;;;;;;;;;;;;;;;;;10584360;28;19924;-69
2022/11/11 10:52:13;;;;;;;;;;;;;;;;;;10583560;28;20328;-69
2022/11/11 10:57:15;;;;;;;;;;;;;;;;;;10584028;28;19975;-68
2022/11/11 11:02:18;;;;;;;;;;;;;;;;;;10583455;28;19923;-68
2022/11/11 11:07:20;;;;;;;;;;;;;;;;;;10583026;28;19949;-69
2022/11/11 11:12:22;;;;;;;;;;;;;;;;;;10582892;28;20015;-69
2022/11/11 11:17:24;;;;;;;;;;;;;;;;;;10572579;22;19978;-63
2022/11/11 11:22:26;;;;;;;;;;;;;;;;;;10498382;28;20290;-62
2022/11/11 11:27:28;;;;;;;;;;;;;;;;;;10497851;28;19978;-63
2022/11/11 11:32:30;;;;;;;;;;;;;;;;;;10498571;28;20375;-63
2022/11/11 11:37:32;;;;;;;;;;;;;;;;;;10498928;28;19924;-63
2022/11/11 11:42:34;;;;;;;;;;;;;;;;;;10498708;28;19974;-63
2022/11/11 11:47:36;;;;;;;;;;;;;;;;;;10498000;28;20317;-62
2022/11/11 11:52:39;;;;;;;;;;;;;;;;;;10498641;28;19971;-63
2022/11/11 11:57:46;;;;;;;;;;;;;;;;;;10498554;28;19925;-63
2022/11/11 12:02:48;;;;;;;;;;;;;;;;;;10497803;28;19925;-63
2022/11/11 12:07:50;;;;;;;;;;;;;;;;;;10497609;28;20294;-63
2022/11/11 12:12:52;;;;;;;;;;;;;;;;;;10498795;28;19928;-63
2022/11/11 12:17:54;;;;;;;;;;;;;;;;;;10497656;28;19993;-63
2022/11/11 12:22:56;;;;;;;;;;;;;;;;;;10497396;28;19932;-63
2022/11/11 12:27:58;;;;;;;;;;;;;;;;;;10497849;28;19925;-63
2022/11/11 12:33:00;;;;;;;;;;;;;;;;;;10497982;28;19928;-63
2022/11/11 12:38:02;;;;;;;;;;;;;;;;;;10496523;28;19928;-63
2022/11/11 12:43:04;;;;;;;;;;;;;;;;;;10500915;28;19924;-63
2022/11/11 12:48:06;;;;;;;;;;;;;;;;;;10504359;28;19924;-63
2022/11/11 12:53:08;;;;;;;;;;;;;;;;;;10504888;28;19974;-63
2022/11/11 12:58:10;;;;;;;;;;;;;;;;;;10504692;28;19932;-63
2022/11/11 13:03:12;;;;;;;;;;;;;;;;;;10504293;28;19947;-63
2022/11/11 13:08:15;;;;;;;;;;;;;;;;;;10504261;28;19928;-63
2022/11/11 13:13:17;;;;;;;;;;;;;;;;;;10503574;28;20371;-63
2022/11/11 13:18:19;;;;;;;;;;;;;;;;;;10502447;28;19924;-63
2022/11/11 13:23:21;;;;;;;;;;;;;;;;;;10503774;28;19974;-63
2022/11/11 13:28:27;;;;;;;;;;;;;;;;;;10502845;28;20375;-63
2022/11/11 13:33:29;;;;;;;;;;;;;;;;;;10503378;28;19925;-63
2022/11/11 13:38:31;;;;;;;;;;;;;;;;;;10502531;28;20387;-63
2022/11/11 13:43:34;;;;;;;;;;;;;;;;;;10502962;28;19978;-63
2022/11/11 13:48:39;;;;;;;;;;;;;;;;;;10502639;28;19924;-63
2022/11/11 13:53:41;;;;;;;;;;;;;;;;;;10501328;28;19928;-63
2022/11/11 13:58:43;;;;;;;;;;;;;;;;;;10502267;28;19924;-63
2022/11/11 14:03:45;;;;;;;;;;;;;;;;;;10501886;28;20290;-63
2022/11/11 14:08:49;;;;;;;;;;;;;;;;;;10501244;28;19971;-63
2022/11/11 14:13:51;;;;;;;;;;;;;;;;;;10501510;28;20299;-63
2022/11/11 14:18:53;;;;;;;;;;;;;;;;;;10501010;28;19924;-63
2022/11/11 14:23:55;;;;;;;;;;;;;;;;;;10501324;28;19924;-63
2022/11/11 14:28:57;;;;;;;;;;;;;;;;;;10500392;28;19976;-63
2022/11/11 14:34:00;;;;;;;;;;;;;;;;;;10500283;28;20375;-63
2022/11/11 14:39:03;;;;;;;;;;;;;;;;;;10500027;28;20291;-63
2022/11/11 14:44:05;;;;;;;;;;;;;;;;;;10500468;28;19924;-63
2022/11/11 14:49:07;;;;;;;;;;;;;;;;;;10500213;28;19924;-63
2022/11/11 14:54:09;;;;;;;;;;;;;;;;;;10499478;28;19993;-63
2022/11/11 14:59:13;;;;;;;;;;;;;;;;;;10499937;28;19982;-63
2022/11/11 15:04:15;;;;;;;;;;;;;;;;;;10499747;28;19974;-63
2022/11/11 15:09:17;;;;;;;;;;;;;;;;;;10498991;28;19929;-63
2022/11/11 15:14:20;;;;;;;;;;;;;;;;;;10498383;28;19932;-63
2022/11/11 15:19:22;;;;;;;;;;;;;;;;;;10499089;28;19936;-63
2022/11/11 15:24:24;;;;;;;;;;;;;;;;;;10499191;28;19925;-63
2022/11/11 15:29:26;;;;;;;;;;;;;;;;;;10499164;28;19925;-62
2022/11/11 15:34:28;;;;;;;;;;;;;;;;;;10498336;28;19924;-62
2022/11/11 15:39:30;;;;;;;;;;;;;;;;;;10498872;28;19978;-63
2022/11/11 15:44:33;;;;;;;;;;;;;;;;;;10498768;28;19928;-63
2022/11/11 15:49:35;;;;;;;;;;;;;;;;;;10497974;28;20321;-63
2022/11/11 15:54:37;;;;;;;;;;;;;;;;;;10498625;28;19925;-63
2022/11/11 15:59:40;;;;;;;;;;;;;;;;;;10498516;28;19978;-63
2022/11/11 16:04:42;;;;;;;;;;;;;;;;;;10497793;28;19928;-63
2022/11/11 16:09:56;;;;;;;;;;;;;;;;;;10498297;28;19978;-62
2022/11/11 16:14:58;;;;;;;;;;;;;;;;;;10498181;28;19974;-62
2022/11/11 16:20:00;;;;;;;;;;;;;;;;;;10504184;28;19974;-62
2022/11/11 16:25:03;;;;;;;;;;;;;;;;;;10505446;28;20007;-63
2022/11/11 16:30:06;;;;;;;;;;;;;;;;;;10505101;28;20039;-63
2022/11/11 16:35:08;;;;;;;;;;;;;;;;;;10505588;28;19924;-62
2022/11/11 16:40:10;;;;;;;;;;;;;;;;;;10505276;28;20379;-62
2022/11/11 16:45:12;;;;;;;;;;;;;;;;;;10505187;28;19929;-63
2022/11/11 16:50:14;;;;;;;;;;;;;;;;;;10504955;28;19928;-63
2022/11/11 16:55:16;;;;;;;;;;;;;;;;;;10504907;28;19970;-63
2022/11/11 17:00:18;;;;;;;;;;;;;;;;;;10504075;28;20264;-63
2022/11/11 17:05:20;;;;;;;;;;;;;;;;;;10504497;28;19925;-63
2022/11/11 17:10:22;;;;;;;;;;;;;;;;;;10503740;28;19928;-62
2022/11/11 17:15:24;;;;;;;;;;;;;;;;;;10504122;28;19924;-63
2022/11/11 17:20:26;;;;;;;;;;;;;;;;;;10503522;28;19924;-63
2022/11/11 17:25:28;;;;;;;;;;;;;;;;;;10503816;28;19929;-62
2022/11/11 17:30:30;;;;;;;;;;;;;;;;;;10503708;28;19928;-63
2022/11/11 17:35:32;;;;;;;;;;;;;;;;;;10502235;28;19935;-63
2022/11/11 17:40:34;;;;;;;;;;;;;;;;;;10502425;28;19925;-63
2022/11/11 17:45:36;;;;;;;;;;;;;;;;;;10502322;28;19924;-63
2022/11/11 17:50:39;;;;;;;;;;;;;;;;;;10502765;28;19924;-63
2022/11/11 17:55:41;;;;;;;;;;;;;;;;;;10501964;28;19928;-62
2022/11/11 18:00:43;;;;;;;;;;;;;;;;;;10502342;28;19929;-63
2022/11/11 18:05:45;;;;;;;;;;;;;;;;;;10502118;28;19966;-62
2022/11/11 18:10:47;;;;;;;;;;;;;;;;;;10501218;28;19997;-62
2022/11/11 18:15:49;;;;;;;;;;;;;;;;;;10501729;28;19977;-62
2022/11/11 18:20:51;;;;;;;;;;;;;;;;;;10500985;28;20429;-63
2022/11/11 18:25:53;;;;;;;;;;;;;;;;;;10500642;28;19925;-62
2022/11/11 18:30:55;;;;;;;;;;;;;;;;;;10500356;28;20393;-62
2022/11/11 18:35:57;;;;;;;;;;;;;;;;;;10500893;28;19925;-63
2022/11/11 18:40:59;;;;;;;;;;;;;;;;;;10499410;28;20391;-62
2022/11/11 18:46:01;;;;;;;;;;;;;;;;;;10500484;28;19985;-63
2022/11/11 18:51:03;;;;;;;;;;;;;;;;;;10500179;28;19955;-62
2022/11/11 18:56:08;;;;;;;;;;;;;;;;;;10498852;28;20315;-62
2022/11/11 19:01:10;;;;;;;;;;;;;;;;;;10499352;28;19928;-63
2022/11/11 19:06:12;;;;;;;;;;;;;;;;;;10499042;28;20402;-63
2022/11/11 19:11:14;;;;;;;;;;;;;;;;;;10499583;28;19971;-63
2022/11/11 19:16:16;;;;;;;;;;;;;;;;;;10499332;28;19970;-62
2022/11/11 19:21:18;;;;;;;;;;;;;;;;;;10498579;28;19924;-63
2022/11/11 19:26:20;;;;;;;;;;;;;;;;;;10499180;28;19983;-63
2022/11/11 19:31:22;;;;;;;;;;;;;;;;;;10499168;28;19928;-63
2022/11/11 19:36:26;;;;;;;;;;;;;;;;;;10498991;28;19955;-62
2022/11/11 19:41:29;;;;;;;;;;;;;;;;;;10498928;28;19931;-62
2022/11/11 19:46:32;;;;;;;;;;;;;;;;;;10498096;28;20379;-62
2022/11/11 19:51:34;;;;;;;;;;;;;;;;;;10502225;28;19925;-63
2022/11/11 19:56:36;;;;;;;;;;;;;;;;;;10507259;28;19925;-62
2022/11/11 20:01:38;;;;;;;;;;;;;;;;;;10507036;28;19978;-62
2022/11/11 20:06:40;;;;;;;;;;;;;;;;;;10506154;28;19929;-62
2022/11/11 20:11:43;;;;;;;;;;;;;;;;;;10506020;28;19929;-62
2022/11/11 20:16:45;;;;;;;;;;;;;;;;;;10505807;28;20429;-62
2022/11/11 20:21:47;;;;;;;;;;;;;;;;;;10505724;28;19974;-63
2022/11/11 20:26:49;;;;;;;;;;;;;;;;;;10506001;28;19970;-62
2022/11/11 20:31:53;;;;;;;;;;;;;;;;;;10505819;28;19925;-62
2022/11/11 20:36:55;;;;;;;;;;;;;;;;;;10505017;28;19924;-62
2022/11/11 20:41:57;;;;;;;;;;;;;;;;;;10505967;28;19924;-62
2022/11/11 20:46:59;;;;;;;;;;;;;;;;;;10505202;28;19924;-63
2022/11/11 20:52:01;;;;;;;;;;;;;;;;;;10504255;28;19925;-63
2022/11/11 20:57:03;;;;;;;;;;;;;;;;;;10504258;28;20321;-62
2022/11/11 21:02:05;;;;;;;;;;;;;;;;;;10504031;28;19925;-63
2022/11/11 21:07:07;;;;;;;;;;;;;;;;;;10505051;28;19959;-63
2022/11/11 21:12:09;;;;;;;;;;;;;;;;;;10503214;28;20007;-62
2022/11/11 21:17:12;;;;;;;;;;;;;;;;;;10503987;28;19978;-63
2022/11/11 21:22:14;;;;;;;;;;;;;;;;;;10503977;28;19928;-62
2022/11/11 21:27:16;;;;;;;;;;;;;;;;;;10502510;28;19924;-63
2022/11/11 21:32:18;;;;;;;;;;;;;;;;;;10502965;28;20334;-63
2022/11/11 21:37:20;;;;;;;;;;;;;;;;;;10503364;28;19990;-62
2022/11/11 21:42:22;;;;;;;;;;;;;;;;;;10502524;28;19924;-62
2022/11/11 21:47:24;;;;;;;;;;;;;;;;;;10502871;28;19924;-62
2022/11/11 21:52:26;;;;;;;;;;;;;;;;;;10473326;28;20372;-62
2022/11/11 21:57:28;;;;;;;;;;;;;;;;;;10501590;28;19924;-62
2022/11/11 22:02:30;;;;;;;;;;;;;;;;;;10501580;28;19925;-62
2022/11/11 22:07:32;;;;;;;;;;;;;;;;;;10500670;28;19928;-63
2022/11/11 22:12:34;;;;;;;;;;;;;;;;;;10501119;28;19928;-62
2022/11/11 22:17:37;;;;;;;;;;;;;;;;;;10499799;28;19970;-63
2022/11/11 22:22:39;;;;;;;;;;;;;;;;;;10500422;28;19956;-62
2022/11/11 22:27:41;;;;;;;;;;;;;;;;;;10513857;28;19925;-63
2022/11/11 22:32:43;;;;;;;;;;;;;;;;;;10516054;28;19924;-63
2022/11/11 22:37:45;;;;;;;;;;;;;;;;;;10500401;28;20421;-63
2022/11/11 22:42:48;;;;;;;;;;;;;;;;;;10500667;28;19924;-63
2022/11/11 22:47:50;;;;;;;;;;;;;;;;;;10512160;28;19925;-62
2022/11/11 22:52:52;;;;;;;;;;;;;;;;;;10499407;28;19978;-63
2022/11/11 22:57:54;;;;;;;;;;;;;;;;;;10499727;28;19928;-63
2022/11/11 23:02:56;;;;;;;;;;;;;;;;;;10498980;28;20372;-62
2022/11/11 23:07:58;;;;;;;;;;;;;;;;;;10499102;28;19982;-62
2022/11/11 23:13:00;;;;;;;;;;;;;;;;;;10498233;28;20325;-63
2022/11/11 23:18:02;;;;;;;;;;;;;;;;;;10498429;28;19929;-62
2022/11/11 23:23:04;;;;;;;;;;;;;;;;;;10497869;28;19929;-63
2022/11/11 23:28:07;;;;;;;;;;;;;;;;;;10498153;28;19928;-63
2022/11/11 23:33:09;;;;;;;;;;;;;;;;;;10541031;22;19932;-68
2022/11/11 23:38:11;;;;;;;;;;;;;;;;;;10581779;28;19989;-68
2022/11/11 23:43:13;;;;;;;;;;;;;;;;;;10582185;28;19927;-69
2022/11/11 23:48:15;;;;;;;;;;;;;;;;;;10581932;28;19924;-69
2022/11/11 23:53:17;;;;;;;;;;;;;;;;;;10581949;28;19924;-69
2022/11/11 23:58:19;;;;;;;;;;;;;;;;;;10580722;28;19977;-69
